createdAt,value
2022-10-17T00:05:00.190Z,51.6
2022-10-17T00:15:01.060Z,51.6
2022-10-17T00:20:00.221Z,51.6
2022-10-17T00:25:00.158Z,51.6
2022-10-17T00:35:00.146Z,51.6
2022-10-17T00:45:01.489Z,51.1
2022-10-17T00:55:01.065Z,51.1
2022-10-17T01:05:00.988Z,51.2
2022-10-17T01:15:00.145Z,51.3
2022-10-17T01:20:00.247Z,51.4
2022-10-17T01:25:00.123Z,51.4
2022-10-17T01:30:01.465Z,51.4
2022-10-17T01:35:00.158Z,51.5
2022-10-17T01:45:00.136Z,51.6
2022-10-17T01:50:01.321Z,51.6
2022-10-17T01:55:00.164Z,51.6
2022-10-17T02:00:01.250Z,51.7
2022-10-17T02:10:01.235Z,51.7
2022-10-17T02:15:00.219Z,51.8
2022-10-17T02:25:00.136Z,51.8
2022-10-17T02:35:01.306Z,51.9
2022-10-17T02:45:00.181Z,51.9
2022-10-17T02:55:00.158Z,52.0
2022-10-17T03:05:00.137Z,52.1
2022-10-17T03:15:01.083Z,52.1
2022-10-17T03:25:00.140Z,52.2
2022-10-17T03:35:00.195Z,52.4
2022-10-17T03:45:01.526Z,52.4
2022-10-17T03:55:00.135Z,52.5
2022-10-17T04:05:00.145Z,52.5
2022-10-17T04:15:01.281Z,52.6
2022-10-17T04:20:01.282Z,52.6
2022-10-17T04:25:00.129Z,52.8
2022-10-17T04:35:01.294Z,53.0
2022-10-17T04:40:01.054Z,53.0
2022-10-17T04:45:01.207Z,53.0
2022-10-17T04:50:01.041Z,53.0
2022-10-17T04:55:00.173Z,53.1
2022-10-17T05:05:01.459Z,53.1
2022-10-17T05:15:01.314Z,53.1
2022-10-17T05:25:02.541Z,53.1
2022-10-17T05:30:01.007Z,53.1
2022-10-17T05:35:00.136Z,53.2
2022-10-17T05:40:00.899Z,53.2
2022-10-17T05:45:00.143Z,53.2
2022-10-17T05:55:00.156Z,53.2
2022-10-17T06:05:00.154Z,53.2
2022-10-17T06:15:00.183Z,53.3
2022-10-17T06:25:01.279Z,53.3
2022-10-17T06:30:01.214Z,53.3
2022-10-17T06:35:01.266Z,53.3
2022-10-17T06:45:00.138Z,53.5
2022-10-17T06:50:01.022Z,53.5
2022-10-17T06:55:01.058Z,53.5
2022-10-17T07:05:01.181Z,53.5
2022-10-17T07:10:01.327Z,53.7
2022-10-17T07:15:00.139Z,54.0
2022-10-17T07:25:00.245Z,54.3
2022-10-17T07:30:01.337Z,54.3
2022-10-17T07:35:00.141Z,54.5
2022-10-17T07:40:01.111Z,54.6
2022-10-17T07:45:01.308Z,54.5
2022-10-17T07:50:01.300Z,54.5
2022-10-17T07:55:00.153Z,54.4
2022-10-17T08:00:01.385Z,54.4
2022-10-17T08:05:01.289Z,54.4
2022-10-17T08:10:01.480Z,54.4
2022-10-17T08:15:01.241Z,54.4
2022-10-17T08:20:01.075Z,54.3
2022-10-17T08:25:00.157Z,54.3
2022-10-17T08:35:01.121Z,54.3
2022-10-17T08:45:01.556Z,54.4
2022-10-17T08:55:03.024Z,54.6
2022-10-17T09:00:00.244Z,54.6
2022-10-17T09:05:00.183Z,54.6
2022-10-17T09:15:01.085Z,54.7
2022-10-17T09:20:00.230Z,54.6
2022-10-17T09:25:00.162Z,54.8
2022-10-17T09:35:00.208Z,54.8
2022-10-17T09:45:00.146Z,54.9
2022-10-17T09:50:01.299Z,54.9
2022-10-17T09:55:00.146Z,54.9
2022-10-17T10:05:07.045Z,55.0
2022-10-17T10:15:00.136Z,55.1
2022-10-17T10:25:01.592Z,55.2
2022-10-17T10:35:00.165Z,55.2
2022-10-17T10:45:00.192Z,55.2
2022-10-17T10:55:01.261Z,55.2
2022-10-17T11:05:00.157Z,55.1
2022-10-17T11:15:01.486Z,55.1
2022-10-17T11:25:01.393Z,55.1
2022-10-17T11:35:00.183Z,55.1
2022-10-17T11:40:01.319Z,55.1
2022-10-17T11:45:01.639Z,55.0
2022-10-17T11:55:02.546Z,55.0
2022-10-17T12:00:01.592Z,55.0
2022-10-17T12:05:01.529Z,54.9
2022-10-17T12:10:01.387Z,54.9
2022-10-17T12:15:01.766Z,55.0
2022-10-17T12:25:01.662Z,54.9
2022-10-17T12:35:01.760Z,54.8
2022-10-17T12:45:00.148Z,54.8
2022-10-17T12:55:12.904Z,54.7
2022-10-17T13:05:01.702Z,54.7
2022-10-17T13:15:01.712Z,54.7
2022-10-17T13:25:00.158Z,54.6
2022-10-17T13:35:01.622Z,54.8
2022-10-17T13:45:02.187Z,54.9
2022-10-17T13:50:01.709Z,54.8
2022-10-17T13:55:00.165Z,54.7
2022-10-17T14:05:18.868Z,54.7
2022-10-17T14:15:10.925Z,55.1
2022-10-17T14:20:48.153Z,55.0
2022-10-17T14:25:02.898Z,55.1
2022-10-17T14:30:02.884Z,55.0
2022-10-17T14:35:30.410Z,55.2
2022-10-17T14:40:01.330Z,55.1
2022-10-17T14:45:00.150Z,55.0
2022-10-17T14:50:01.787Z,55.0
2022-10-17T14:55:00.176Z,55.0
2022-10-17T15:05:01.531Z,54.9
2022-10-17T15:15:01.651Z,54.9
2022-10-17T15:25:01.387Z,55.0
2022-10-17T15:35:01.145Z,54.8
2022-10-17T15:40:00.199Z,54.8
2022-10-17T15:45:00.293Z,54.8
2022-10-17T15:55:05.697Z,54.9
2022-10-17T16:05:01.299Z,54.6
2022-10-17T16:15:01.308Z,54.7
2022-10-17T16:20:01.765Z,54.8
2022-10-17T16:25:01.520Z,54.8
2022-10-17T16:35:01.625Z,54.9
2022-10-17T16:45:00.164Z,54.8
2022-10-17T16:50:01.071Z,54.9
2022-10-17T16:55:00.178Z,54.8
2022-10-17T17:05:00.166Z,54.9
2022-10-17T17:15:00.146Z,54.9
2022-10-17T17:25:01.365Z,54.9
2022-10-17T17:30:01.407Z,55.0
2022-10-17T17:35:00.185Z,54.9
2022-10-17T17:40:01.706Z,54.9
2022-10-17T17:45:00.162Z,54.9
2022-10-17T17:55:01.057Z,54.8
2022-10-17T18:05:00.177Z,54.8
2022-10-17T18:15:00.169Z,54.6
2022-10-17T18:20:01.361Z,54.5
2022-10-17T18:25:02.452Z,54.5
2022-10-17T18:35:01.188Z,54.3
2022-10-17T18:45:00.151Z,54.2
2022-10-17T18:55:01.580Z,54.2
2022-10-17T19:00:01.054Z,54.4
2022-10-17T19:05:00.215Z,54.5
2022-10-17T19:15:01.079Z,54.7
2022-10-17T19:25:01.496Z,54.7
2022-10-17T19:30:04.607Z,54.7
2022-10-17T19:35:00.142Z,54.8
2022-10-17T19:40:01.046Z,54.8
2022-10-17T19:45:01.263Z,54.8
2022-10-17T19:55:01.063Z,54.9
2022-10-17T20:00:02.770Z,54.8
2022-10-17T20:05:18.761Z,54.7
2022-10-17T20:15:00.153Z,54.7
2022-10-17T20:20:06.324Z,54.7
2022-10-17T20:25:01.323Z,54.7
2022-10-17T20:35:00.182Z,54.7
2022-10-17T20:45:00.231Z,54.6
2022-10-17T20:55:01.297Z,54.6
2022-10-17T21:05:01.348Z,54.6
2022-10-17T21:10:34.213Z,54.6
2022-10-17T21:15:00.996Z,54.6
2022-10-17T21:25:01.030Z,54.5
2022-10-17T21:35:01.009Z,54.5
2022-10-17T21:45:00.145Z,54.5
2022-10-17T21:55:00.153Z,54.5
2022-10-17T22:05:00.150Z,54.5
2022-10-17T22:15:00.327Z,54.4
2022-10-17T22:25:00.149Z,54.4
2022-10-17T22:35:02.716Z,54.3
2022-10-17T22:40:01.045Z,54.3
2022-10-17T22:45:00.131Z,54.3
2022-10-17T22:55:01.460Z,54.3
2022-10-17T23:00:01.091Z,54.3
2022-10-17T23:05:01.860Z,54.3
2022-10-17T23:15:01.495Z,54.3
2022-10-17T23:20:00.160Z,54.3
2022-10-17T23:25:01.029Z,54.2
2022-10-17T23:35:01.659Z,54.2
2022-10-17T23:40:01.272Z,54.3
2022-10-17T23:45:00.141Z,54.2
2022-10-17T23:50:00.170Z,54.2
2022-10-17T23:55:01.331Z,54.2
